sensor_id;sensor_type;location;lat;lon;timestamp;pressure;altitude;pressure_sealevel;temperature;humidity
72636;BME280;60679;48.888;15.544;2023-06-19T00:00:51;96055.88;;;13.38;55.76
72636;BME280;60679;48.888;15.544;2023-06-19T00:03:16;96054.41;;;13.30;55.97
72636;BME280;60679;48.888;15.544;2023-06-19T00:05:42;96051.34;;;13.27;56.09
72636;BME280;60679;48.888;15.544;2023-06-19T00:08:07;96056.69;;;13.22;56.20
72636;BME280;60679;48.888;15.544;2023-06-19T00:10:33;96048.72;;;13.15;56.14
72636;BME280;60679;48.888;15.544;2023-06-19T00:12:58;96047.56;;;13.11;56.35
72636;BME280;60679;48.888;15.544;2023-06-19T00:15:24;96043.69;;;13.07;56.40
72636;BME280;60679;48.888;15.544;2023-06-19T00:17:49;96048.19;;;13.02;56.43
72636;BME280;60679;48.888;15.544;2023-06-19T00:20:15;96041.13;;;13.01;56.40
72636;BME280;60679;48.888;15.544;2023-06-19T00:22:40;96048.91;;;12.97;56.61
72636;BME280;60679;48.888;15.544;2023-06-19T00:25:06;96049.97;;;12.96;56.52
72636;BME280;60679;48.888;15.544;2023-06-19T00:27:32;96052.34;;;12.93;56.62
72636;BME280;60679;48.888;15.544;2023-06-19T00:29:57;96050.94;;;12.90;56.81
72636;BME280;60679;48.888;15.544;2023-06-19T00:32:30;96055.22;;;12.86;56.90
72636;BME280;60679;48.888;15.544;2023-06-19T00:34:56;96055.72;;;12.83;56.85
72636;BME280;60679;48.888;15.544;2023-06-19T00:37:22;96058.41;;;12.83;56.92
72636;BME280;60679;48.888;15.544;2023-06-19T00:39:47;96061.94;;;12.84;57.02
72636;BME280;60679;48.888;15.544;2023-06-19T00:42:12;96056.19;;;12.80;56.98
72636;BME280;60679;48.888;15.544;2023-06-19T00:44:39;96055.00;;;12.76;57.02
72636;BME280;60679;48.888;15.544;2023-06-19T00:47:07;96051.50;;;12.76;57.33
72636;BME280;60679;48.888;15.544;2023-06-19T00:49:32;96047.97;;;12.75;57.25
72636;BME280;60679;48.888;15.544;2023-06-19T00:51:58;96051.16;;;12.72;57.25
72636;BME280;60679;48.888;15.544;2023-06-19T00:54:24;96052.47;;;12.69;57.26
72636;BME280;60679;48.888;15.544;2023-06-19T00:56:50;96045.66;;;12.67;57.44
72636;BME280;60679;48.888;15.544;2023-06-19T00:59:19;96043.44;;;12.64;57.62
72636;BME280;60679;48.888;15.544;2023-06-19T01:01:46;96044.47;;;12.63;57.61
72636;BME280;60679;48.888;15.544;2023-06-19T01:04:12;96042.59;;;12.63;57.73
72636;BME280;60679;48.888;15.544;2023-06-19T01:07:02;96041.50;;;12.64;57.72
72636;BME280;60679;48.888;15.544;2023-06-19T01:09:31;96039.88;;;12.63;57.84
72636;BME280;60679;48.888;15.544;2023-06-19T01:12:04;96039.19;;;12.56;58.03
72636;BME280;60679;48.888;15.544;2023-06-19T01:14:39;96036.97;;;12.53;57.98
72636;BME280;60679;48.888;15.544;2023-06-19T01:17:06;96037.72;;;12.49;57.96
72636;BME280;60679;48.888;15.544;2023-06-19T01:19:31;96041.47;;;12.48;58.04
72636;BME280;60679;48.888;15.544;2023-06-19T01:22:01;96042.56;;;12.47;58.04
72636;BME280;60679;48.888;15.544;2023-06-19T01:24:26;96036.53;;;12.45;58.16
72636;BME280;60679;48.888;15.544;2023-06-19T01:26:51;96037.63;;;12.44;58.23
72636;BME280;60679;48.888;15.544;2023-06-19T01:29:17;96040.72;;;12.36;58.27
72636;BME280;60679;48.888;15.544;2023-06-19T01:32:07;96035.91;;;12.26;58.24
72636;BME280;60679;48.888;15.544;2023-06-19T01:34:36;96038.41;;;12.16;58.41
72636;BME280;60679;48.888;15.544;2023-06-19T01:37:03;96032.75;;;12.06;58.55
72636;BME280;60679;48.888;15.544;2023-06-19T01:39:31;96025.13;;;12.03;58.65
72636;BME280;60679;48.888;15.544;2023-06-19T01:42:01;96029.47;;;12.04;58.78
72636;BME280;60679;48.888;15.544;2023-06-19T01:44:27;96030.88;;;12.06;58.88
72636;BME280;60679;48.888;15.544;2023-06-19T01:46:53;96031.22;;;12.10;58.66
72636;BME280;60679;48.888;15.544;2023-06-19T01:49:18;96037.13;;;12.07;58.75
72636;BME280;60679;48.888;15.544;2023-06-19T01:51:44;96036.78;;;12.03;58.91
72636;BME280;60679;48.888;15.544;2023-06-19T01:54:10;96039.00;;;12.06;58.85
72636;BME280;60679;48.888;15.544;2023-06-19T01:56:35;96036.03;;;12.08;59.04
72636;BME280;60679;48.888;15.544;2023-06-19T01:59:04;96040.06;;;12.05;58.84
72636;BME280;60679;48.888;15.544;2023-06-19T02:01:29;96035.00;;;11.97;59.26
72636;BME280;60679;48.888;15.544;2023-06-19T02:03:54;96034.19;;;11.97;59.26
72636;BME280;60679;48.888;15.544;2023-06-19T02:06:20;96034.09;;;11.92;59.10
72636;BME280;60679;48.888;15.544;2023-06-19T02:08:47;96037.88;;;11.91;59.23
72636;BME280;60679;48.888;15.544;2023-06-19T02:11:13;96040.78;;;11.89;59.21
72636;BME280;60679;48.888;15.544;2023-06-19T02:13:38;96039.63;;;11.85;59.42
72636;BME280;60679;48.888;15.544;2023-06-19T02:16:04;96037.63;;;11.81;59.61
72636;BME280;60679;48.888;15.544;2023-06-19T02:18:29;96037.75;;;11.74;59.57
72636;BME280;60679;48.888;15.544;2023-06-19T02:20:54;96026.34;;;11.72;59.60
72636;BME280;60679;48.888;15.544;2023-06-19T02:23:20;96041.75;;;11.72;59.64
72636;BME280;60679;48.888;15.544;2023-06-19T02:25:45;96040.34;;;11.69;59.76
72636;BME280;60679;48.888;15.544;2023-06-19T02:28:10;96045.13;;;11.67;59.47
72636;BME280;60679;48.888;15.544;2023-06-19T02:30:36;96042.91;;;11.64;59.78
72636;BME280;60679;48.888;15.544;2023-06-19T02:33:01;96045.03;;;11.62;59.82
72636;BME280;60679;48.888;15.544;2023-06-19T02:35:26;96046.91;;;11.62;59.93
72636;BME280;60679;48.888;15.544;2023-06-19T02:37:52;96037.84;;;11.56;60.00
72636;BME280;60679;48.888;15.544;2023-06-19T02:40:17;96047.38;;;11.58;60.16
72636;BME280;60679;48.888;15.544;2023-06-19T02:42:43;96039.63;;;11.62;59.97
72636;BME280;60679;48.888;15.544;2023-06-19T02:45:08;96047.72;;;11.62;60.06
72636;BME280;60679;48.888;15.544;2023-06-19T02:47:34;96039.38;;;11.64;59.88
72636;BME280;60679;48.888;15.544;2023-06-19T02:50:00;96029.28;;;11.59;60.11
72636;BME280;60679;48.888;15.544;2023-06-19T02:52:27;96028.31;;;11.53;59.97
72636;BME280;60679;48.888;15.544;2023-06-19T02:54:53;96023.84;;;11.47;60.19
72636;BME280;60679;48.888;15.544;2023-06-19T02:57:18;96025.72;;;11.47;60.26
72636;BME280;60679;48.888;15.544;2023-06-19T02:59:44;96027.38;;;11.48;60.22
72636;BME280;60679;48.888;15.544;2023-06-19T03:02:11;96032.34;;;11.51;60.24
72636;BME280;60679;48.888;15.544;2023-06-19T03:04:36;96035.50;;;11.48;59.94
72636;BME280;60679;48.888;15.544;2023-06-19T03:07:02;96033.84;;;11.47;60.22
72636;BME280;60679;48.888;15.544;2023-06-19T03:09:28;96032.34;;;11.51;60.48
72636;BME280;60679;48.888;15.544;2023-06-19T03:11:53;96030.56;;;11.56;60.37
72636;BME280;60679;48.888;15.544;2023-06-19T03:14:20;96031.97;;;11.59;60.36
72636;BME280;60679;48.888;15.544;2023-06-19T03:16:45;96039.25;;;11.58;60.20
72636;BME280;60679;48.888;15.544;2023-06-19T03:19:10;96041.59;;;11.55;60.53
72636;BME280;60679;48.888;15.544;2023-06-19T03:21:36;96040.19;;;11.52;60.45
72636;BME280;60679;48.888;15.544;2023-06-19T03:24:01;96052.31;;;11.50;60.34
72636;BME280;60679;48.888;15.544;2023-06-19T03:26:27;96050.06;;;11.47;60.42
72636;BME280;60679;48.888;15.544;2023-06-19T03:28:53;96050.66;;;11.49;60.55
72636;BME280;60679;48.888;15.544;2023-06-19T03:31:18;96054.53;;;11.53;60.33
72636;BME280;60679;48.888;15.544;2023-06-19T03:33:44;96054.06;;;11.56;60.41
72636;BME280;60679;48.888;15.544;2023-06-19T03:36:09;96061.00;;;11.64;60.54
72636;BME280;60679;48.888;15.544;2023-06-19T03:38:35;96059.88;;;11.71;60.27
72636;BME280;60679;48.888;15.544;2023-06-19T03:41:00;96055.16;;;11.78;60.65
72636;BME280;60679;48.888;15.544;2023-06-19T03:43:25;96062.69;;;11.88;60.33
72636;BME280;60679;48.888;15.544;2023-06-19T03:45:51;96063.63;;;11.93;60.38
72636;BME280;60679;48.888;15.544;2023-06-19T03:48:17;96064.31;;;12.00;60.35
72636;BME280;60679;48.888;15.544;2023-06-19T03:50:43;96056.53;;;12.04;60.37
72636;BME280;60679;48.888;15.544;2023-06-19T03:53:08;96056.91;;;12.07;60.39
72636;BME280;60679;48.888;15.544;2023-06-19T03:55:33;96058.06;;;12.11;60.38
72636;BME280;60679;48.888;15.544;2023-06-19T03:57:59;96059.34;;;12.21;60.44
72636;BME280;60679;48.888;15.544;2023-06-19T04:00:24;96059.44;;;12.26;60.26
72636;BME280;60679;48.888;15.544;2023-06-19T04:02:50;96045.03;;;12.37;60.46
72636;BME280;60679;48.888;15.544;2023-06-19T04:05:15;96051.25;;;12.49;60.33
72636;BME280;60679;48.888;15.544;2023-06-19T04:07:41;96052.25;;;12.59;60.37
72636;BME280;60679;48.888;15.544;2023-06-19T04:10:07;96047.38;;;12.73;60.22
72636;BME280;60679;48.888;15.544;2023-06-19T04:12:32;96050.94;;;12.90;60.15
72636;BME280;60679;48.888;15.544;2023-06-19T04:14:58;96054.53;;;13.07;60.01
72636;BME280;60679;48.888;15.544;2023-06-19T04:17:23;96051.34;;;13.27;59.79
72636;BME280;60679;48.888;15.544;2023-06-19T04:19:48;96061.81;;;13.52;59.71
72636;BME280;60679;48.888;15.544;2023-06-19T04:22:14;96053.47;;;13.75;59.33
72636;BME280;60679;48.888;15.544;2023-06-19T04:24:39;96062.47;;;13.97;59.47
72636;BME280;60679;48.888;15.544;2023-06-19T04:27:05;96055.44;;;14.18;59.15
72636;BME280;60679;48.888;15.544;2023-06-19T04:29:30;96053.69;;;14.28;59.06
72636;BME280;60679;48.888;15.544;2023-06-19T04:31:58;96059.81;;;14.35;59.14
72636;BME280;60679;48.888;15.544;2023-06-19T04:34:23;96054.41;;;14.40;59.25
72636;BME280;60679;48.888;15.544;2023-06-19T04:36:49;96061.75;;;14.40;59.51
72636;BME280;60679;48.888;15.544;2023-06-19T04:39:14;96066.69;;;14.43;59.30
72636;BME280;60679;48.888;15.544;2023-06-19T04:41:43;96064.84;;;14.49;59.42
72636;BME280;60679;48.888;15.544;2023-06-19T04:44:12;96063.66;;;14.61;59.57
72636;BME280;60679;48.888;15.544;2023-06-19T04:46:38;96067.31;;;14.72;59.62
72636;BME280;60679;48.888;15.544;2023-06-19T04:49:04;96067.69;;;14.80;59.36
72636;BME280;60679;48.888;15.544;2023-06-19T04:51:33;96066.09;;;14.84;59.30
72636;BME280;60679;48.888;15.544;2023-06-19T04:53:59;96055.28;;;14.89;59.53
72636;BME280;60679;48.888;15.544;2023-06-19T04:56:25;96070.84;;;14.99;59.55
72636;BME280;60679;48.888;15.544;2023-06-19T04:58:51;96065.22;;;15.06;59.51
72636;BME280;60679;48.888;15.544;2023-06-19T05:01:16;96070.00;;;15.20;59.41
72636;BME280;60679;48.888;15.544;2023-06-19T05:03:45;96067.94;;;15.32;59.38
72636;BME280;60679;48.888;15.544;2023-06-19T05:06:13;96068.34;;;15.46;59.22
72636;BME280;60679;48.888;15.544;2023-06-19T05:08:38;96068.19;;;15.57;59.35
72636;BME280;60679;48.888;15.544;2023-06-19T05:11:04;96071.25;;;15.66;59.10
72636;BME280;60679;48.888;15.544;2023-06-19T05:13:29;96067.25;;;15.79;59.22
72636;BME280;60679;48.888;15.544;2023-06-19T05:15:55;96071.69;;;15.90;59.14
72636;BME280;60679;48.888;15.544;2023-06-19T05:18:23;96069.31;;;15.98;58.94
72636;BME280;60679;48.888;15.544;2023-06-19T05:20:48;96071.00;;;16.09;58.98
72636;BME280;60679;48.888;15.544;2023-06-19T05:23:14;96069.16;;;16.20;59.11
72636;BME280;60679;48.888;15.544;2023-06-19T05:25:39;96070.06;;;16.31;58.84
72636;BME280;60679;48.888;15.544;2023-06-19T05:28:05;96078.28;;;16.41;58.87
72636;BME280;60679;48.888;15.544;2023-06-19T05:30:30;96076.75;;;16.55;58.56
72636;BME280;60679;48.888;15.544;2023-06-19T05:32:55;96085.22;;;16.63;58.53
72636;BME280;60679;48.888;15.544;2023-06-19T05:35:21;96094.56;;;16.72;58.73
72636;BME280;60679;48.888;15.544;2023-06-19T05:37:47;96094.31;;;16.84;58.64
72636;BME280;60679;48.888;15.544;2023-06-19T05:40:12;96094.34;;;16.94;58.33
72636;BME280;60679;48.888;15.544;2023-06-19T05:42:39;96088.13;;;17.09;58.22
72636;BME280;60679;48.888;15.544;2023-06-19T05:45:05;96090.31;;;17.22;57.93
72636;BME280;60679;48.888;15.544;2023-06-19T05:47:31;96093.94;;;17.38;57.98
72636;BME280;60679;48.888;15.544;2023-06-19T05:49:57;96099.16;;;17.54;57.61
72636;BME280;60679;48.888;15.544;2023-06-19T05:52:22;96094.50;;;17.70;57.56
72636;BME280;60679;48.888;15.544;2023-06-19T05:54:48;96099.16;;;17.84;57.11
72636;BME280;60679;48.888;15.544;2023-06-19T05:57:13;96101.38;;;17.98;57.07
72636;BME280;60679;48.888;15.544;2023-06-19T05:59:41;96101.63;;;18.11;56.85
72636;BME280;60679;48.888;15.544;2023-06-19T06:02:07;96105.41;;;18.30;56.50
72636;BME280;60679;48.888;15.544;2023-06-19T06:04:33;96110.03;;;18.55;56.11
72636;BME280;60679;48.888;15.544;2023-06-19T06:07:00;96112.44;;;18.82;56.20
72636;BME280;60679;48.888;15.544;2023-06-19T06:09:25;96114.75;;;19.09;55.78
72636;BME280;60679;48.888;15.544;2023-06-19T06:11:52;96121.19;;;19.38;55.23
72636;BME280;60679;48.888;15.544;2023-06-19T06:14:20;96122.94;;;19.68;54.69
72636;BME280;60679;48.888;15.544;2023-06-19T06:16:46;96127.09;;;19.99;54.26
72636;BME280;60679;48.888;15.544;2023-06-19T06:19:11;96125.53;;;20.22;54.37
72636;BME280;60679;48.888;15.544;2023-06-19T06:21:37;96121.81;;;20.41;53.92
72636;BME280;60679;48.888;15.544;2023-06-19T06:24:02;96118.22;;;20.69;53.40
72636;BME280;60679;48.888;15.544;2023-06-19T06:26:28;96115.31;;;21.08;53.31
72636;BME280;60679;48.888;15.544;2023-06-19T06:28:54;96103.44;;;21.55;52.86
72636;BME280;60679;48.888;15.544;2023-06-19T06:31:21;96106.53;;;22.05;52.08
72636;BME280;60679;48.888;15.544;2023-06-19T06:33:47;96106.63;;;22.64;50.94
72636;BME280;60679;48.888;15.544;2023-06-19T06:36:15;96113.69;;;23.25;50.40
72636;BME280;60679;48.888;15.544;2023-06-19T06:38:40;96115.31;;;23.89;49.32
72636;BME280;60679;48.888;15.544;2023-06-19T06:41:06;96110.09;;;24.23;49.28
72636;BME280;60679;48.888;15.544;2023-06-19T06:43:32;96118.03;;;24.25;49.49
72636;BME280;60679;48.888;15.544;2023-06-19T06:45:57;96119.06;;;24.29;49.16
72636;BME280;60679;48.888;15.544;2023-06-19T06:48:22;96116.91;;;24.26;49.56
72636;BME280;60679;48.888;15.544;2023-06-19T06:50:48;96119.94;;;24.38;49.03
72636;BME280;60679;48.888;15.544;2023-06-19T06:53:14;96121.31;;;24.49;49.09
72636;BME280;60679;48.888;15.544;2023-06-19T06:55:40;96116.75;;;24.75;48.39
72636;BME280;60679;48.888;15.544;2023-06-19T06:58:05;96115.84;;;25.27;47.98
72636;BME280;60679;48.888;15.544;2023-06-19T07:00:31;96129.81;;;25.79;47.32
72636;BME280;60679;48.888;15.544;2023-06-19T07:02:56;96114.53;;;25.99;46.82
72636;BME280;60679;48.888;15.544;2023-06-19T07:05:22;96118.16;;;26.16;46.88
72636;BME280;60679;48.888;15.544;2023-06-19T07:07:47;96116.97;;;26.26;46.86
72636;BME280;60679;48.888;15.544;2023-06-19T07:10:13;96112.72;;;26.11;47.22
72636;BME280;60679;48.888;15.544;2023-06-19T07:12:48;96113.06;;;26.01;47.12
72636;BME280;60679;48.888;15.544;2023-06-19T07:15:14;96115.00;;;25.92;47.35
72636;BME280;60679;48.888;15.544;2023-06-19T07:17:40;96126.06;;;25.92;47.45
72636;BME280;60679;48.888;15.544;2023-06-19T07:20:05;96122.00;;;25.72;47.43
72636;BME280;60679;48.888;15.544;2023-06-19T07:22:32;96120.50;;;25.66;47.81
72636;BME280;60679;48.888;15.544;2023-06-19T07:24:58;96120.34;;;25.63;47.88
72636;BME280;60679;48.888;15.544;2023-06-19T07:27:26;96126.53;;;25.60;47.75
72636;BME280;60679;48.888;15.544;2023-06-19T07:29:53;96129.31;;;25.60;47.64
72636;BME280;60679;48.888;15.544;2023-06-19T07:32:18;96139.56;;;25.59;47.77
72636;BME280;60679;48.888;15.544;2023-06-19T07:34:45;96137.19;;;25.44;47.96
72636;BME280;60679;48.888;15.544;2023-06-19T07:37:11;96137.69;;;25.46;47.85
72636;BME280;60679;48.888;15.544;2023-06-19T07:39:49;96144.38;;;25.45;47.42
72636;BME280;60679;48.888;15.544;2023-06-19T07:42:18;96142.31;;;25.59;47.54
72636;BME280;60679;48.888;15.544;2023-06-19T07:44:45;96138.78;;;25.85;46.82
72636;BME280;60679;48.888;15.544;2023-06-19T07:47:10;96132.91;;;26.03;46.84
72636;BME280;60679;48.888;15.544;2023-06-19T07:49:36;96139.09;;;26.09;46.61
72636;BME280;60679;48.888;15.544;2023-06-19T07:52:02;96137.66;;;26.20;46.39
72636;BME280;60679;48.888;15.544;2023-06-19T07:54:28;96142.91;;;26.21;46.30
72636;BME280;60679;48.888;15.544;2023-06-19T07:56:53;96148.91;;;26.49;45.83
72636;BME280;60679;48.888;15.544;2023-06-19T07:59:19;96150.81;;;26.74;45.45
72636;BME280;60679;48.888;15.544;2023-06-19T08:01:45;96152.69;;;27.08;45.17
72636;BME280;60679;48.888;15.544;2023-06-19T08:04:10;96151.28;;;27.40;44.46
72636;BME280;60679;48.888;15.544;2023-06-19T08:06:36;96155.09;;;27.65;44.24
72636;BME280;60679;48.888;15.544;2023-06-19T08:09:02;96141.91;;;27.82;44.13
72636;BME280;60679;48.888;15.544;2023-06-19T08:11:28;96148.63;;;28.02;43.48
72636;BME280;60679;48.888;15.544;2023-06-19T08:13:53;96154.84;;;28.08;43.59
72636;BME280;60679;48.888;15.544;2023-06-19T08:16:19;96146.91;;;28.39;43.14
72636;BME280;60679;48.888;15.544;2023-06-19T08:18:45;96151.59;;;28.80;42.62
72636;BME280;60679;48.888;15.544;2023-06-19T08:21:11;96149.00;;;29.07;42.40
72636;BME280;60679;48.888;15.544;2023-06-19T08:23:37;96151.91;;;29.11;42.40
72636;BME280;60679;48.888;15.544;2023-06-19T08:26:04;96149.34;;;29.06;42.52
72636;BME280;60679;48.888;15.544;2023-06-19T08:28:33;96149.34;;;29.06;42.28
72636;BME280;60679;48.888;15.544;2023-06-19T08:30:59;96152.34;;;29.13;42.24
72636;BME280;60679;48.888;15.544;2023-06-19T08:33:24;96156.72;;;29.23;42.13
72636;BME280;60679;48.888;15.544;2023-06-19T08:35:49;96160.22;;;29.44;41.92
72636;BME280;60679;48.888;15.544;2023-06-19T08:38:15;96153.38;;;29.90;41.21
72636;BME280;60679;48.888;15.544;2023-06-19T08:40:42;96160.50;;;30.39;40.70
72636;BME280;60679;48.888;15.544;2023-06-19T08:43:10;96159.75;;;30.54;40.25
72636;BME280;60679;48.888;15.544;2023-06-19T08:45:36;96167.78;;;30.31;40.75
72636;BME280;60679;48.888;15.544;2023-06-19T08:48:02;96163.22;;;30.11;40.62
72636;BME280;60679;48.888;15.544;2023-06-19T08:50:33;96161.72;;;30.14;40.72
72636;BME280;60679;48.888;15.544;2023-06-19T08:52:59;96156.00;;;30.22;40.54
72636;BME280;60679;48.888;15.544;2023-06-19T08:55:25;96157.47;;;30.44;40.39
72636;BME280;60679;48.888;15.544;2023-06-19T08:57:53;96151.56;;;30.73;40.20
72636;BME280;60679;48.888;15.544;2023-06-19T09:00:26;96153.34;;;31.09;39.39
72636;BME280;60679;48.888;15.544;2023-06-19T09:02:52;96154.78;;;31.03;39.84
72636;BME280;60679;48.888;15.544;2023-06-19T09:05:23;96152.28;;;31.14;39.78
72636;BME280;60679;48.888;15.544;2023-06-19T09:07:59;96158.81;;;31.65;39.26
72636;BME280;60679;48.888;15.544;2023-06-19T09:10:26;96158.81;;;32.31;38.33
72636;BME280;60679;48.888;15.544;2023-06-19T09:12:58;96152.72;;;33.02;37.19
72636;BME280;60679;48.888;15.544;2023-06-19T09:15:36;96151.50;;;33.64;37.08
72636;BME280;60679;48.888;15.544;2023-06-19T09:18:09;96155.47;;;34.12;36.22
72636;BME280;60679;48.888;15.544;2023-06-19T09:20:38;96145.16;;;34.46;35.26
72636;BME280;60679;48.888;15.544;2023-06-19T09:23:05;96152.13;;;35.59;34.46
72636;BME280;60679;48.888;15.544;2023-06-19T09:25:43;96160.00;;;35.90;33.24
72636;BME280;60679;48.888;15.544;2023-06-19T09:28:19;96155.31;;;36.70;32.52
72636;BME280;60679;48.888;15.544;2023-06-19T09:31:02;96167.31;;;37.53;31.18
72636;BME280;60679;48.888;15.544;2023-06-19T09:33:31;96162.00;;;37.27;31.74
72636;BME280;60679;48.888;15.544;2023-06-19T09:35:58;96154.88;;;37.89;30.78
72636;BME280;60679;48.888;15.544;2023-06-19T09:38:26;96154.00;;;38.49;30.05
72636;BME280;60679;48.888;15.544;2023-06-19T09:40:52;96158.47;;;37.62;30.66
72636;BME280;60679;48.888;15.544;2023-06-19T09:43:29;96158.97;;;41.43;26.49
72636;BME280;60679;48.888;15.544;2023-06-19T09:45:55;96153.34;;;43.61;24.61
72636;BME280;60679;48.888;15.544;2023-06-19T09:48:32;96149.31;;;43.58;24.58
72636;BME280;60679;48.888;15.544;2023-06-19T09:51:10;96150.09;;;44.43;23.86
72636;BME280;60679;48.888;15.544;2023-06-19T09:53:37;96150.63;;;45.41;22.43
72636;BME280;60679;48.888;15.544;2023-06-19T09:56:03;96138.97;;;46.83;21.45
72636;BME280;60679;48.888;15.544;2023-06-19T09:58:29;96149.19;;;47.58;20.61
72636;BME280;60679;48.888;15.544;2023-06-19T10:00:58;96151.16;;;47.70;20.69
72636;BME280;60679;48.888;15.544;2023-06-19T10:03:31;96151.34;;;48.83;19.64
72636;BME280;60679;48.888;15.544;2023-06-19T10:06:02;96140.91;;;49.58;19.17
72636;BME280;60679;48.888;15.544;2023-06-19T10:08:41;96144.00;;;49.87;18.95
72636;BME280;60679;48.888;15.544;2023-06-19T10:11:07;96134.22;;;49.52;19.00
72636;BME280;60679;48.888;15.544;2023-06-19T10:13:34;96140.53;;;50.16;18.02
72636;BME280;60679;48.888;15.544;2023-06-19T10:16:03;96138.84;;;50.57;18.38
72636;BME280;60679;48.888;15.544;2023-06-19T10:18:31;96141.63;;;51.28;17.72
72636;BME280;60679;48.888;15.544;2023-06-19T10:20:57;96130.72;;;51.47;17.63
72636;BME280;60679;48.888;15.544;2023-06-19T10:23:26;96124.19;;;51.31;17.00
72636;BME280;60679;48.888;15.544;2023-06-19T10:28:25;96113.03;;;51.83;16.34
72636;BME280;60679;48.888;15.544;2023-06-19T10:30:54;96109.47;;;51.88;16.52
72636;BME280;60679;48.888;15.544;2023-06-19T10:33:21;96109.41;;;52.92;15.96
72636;BME280;60679;48.888;15.544;2023-06-19T10:35:46;96109.06;;;53.11;15.34
72636;BME280;60679;48.888;15.544;2023-06-19T10:38:15;96101.75;;;53.67;15.31
72636;BME280;60679;48.888;15.544;2023-06-19T10:40:41;96099.47;;;53.50;15.07
72636;BME280;60679;48.888;15.544;2023-06-19T10:43:06;96092.72;;;53.28;15.21
72636;BME280;60679;48.888;15.544;2023-06-19T10:45:32;96094.13;;;53.69;14.63
72636;BME280;60679;48.888;15.544;2023-06-19T10:48:01;96098.59;;;53.65;14.62
72636;BME280;60679;48.888;15.544;2023-06-19T10:50:33;96102.63;;;53.78;14.51
72636;BME280;60679;48.888;15.544;2023-06-19T10:53:00;96098.75;;;53.87;14.16
72636;BME280;60679;48.888;15.544;2023-06-19T10:55:25;96091.25;;;54.43;13.50
72636;BME280;60679;48.888;15.544;2023-06-19T10:57:51;96092.00;;;54.38;13.62
72636;BME280;60679;48.888;15.544;2023-06-19T11:00:30;96093.06;;;54.88;13.67
72636;BME280;60679;48.888;15.544;2023-06-19T11:02:57;96081.34;;;55.64;13.01
72636;BME280;60679;48.888;15.544;2023-06-19T11:05:24;96081.34;;;56.03;12.78
72636;BME280;60679;48.888;15.544;2023-06-19T11:07:54;96075.47;;;56.47;12.50
72636;BME280;60679;48.888;15.544;2023-06-19T11:10:25;96073.31;;;56.53;12.30
72636;BME280;60679;48.888;15.544;2023-06-19T11:12:58;96072.34;;;56.23;12.50
72636;BME280;60679;48.888;15.544;2023-06-19T11:15:34;96069.38;;;56.51;12.35
72636;BME280;60679;48.888;15.544;2023-06-19T11:18:03;96066.84;;;56.88;12.03
72636;BME280;60679;48.888;15.544;2023-06-19T11:20:28;96069.00;;;57.64;11.56
72636;BME280;60679;48.888;15.544;2023-06-19T11:22:55;96075.69;;;57.12;11.19
72636;BME280;60679;48.888;15.544;2023-06-19T11:25:22;96073.03;;;56.62;12.11
72636;BME280;60679;48.888;15.544;2023-06-19T11:27:47;96074.19;;;57.00;11.56
72636;BME280;60679;48.888;15.544;2023-06-19T11:30:17;96069.31;;;57.60;11.26
72636;BME280;60679;48.888;15.544;2023-06-19T11:32:43;96068.50;;;58.19;10.94
72636;BME280;60679;48.888;15.544;2023-06-19T11:35:15;96072.94;;;58.50;10.75
72636;BME280;60679;48.888;15.544;2023-06-19T11:37:43;96059.94;;;58.51;10.85
72636;BME280;60679;48.888;15.544;2023-06-19T11:40:09;96062.75;;;58.81;10.76
72636;BME280;60679;48.888;15.544;2023-06-19T11:42:51;96066.06;;;59.46;10.44
72636;BME280;60679;48.888;15.544;2023-06-19T11:45:17;96070.56;;;59.47;10.39
72636;BME280;60679;48.888;15.544;2023-06-19T11:47:44;96071.97;;;59.41;10.39
72636;BME280;60679;48.888;15.544;2023-06-19T11:50:10;96070.00;;;59.12;9.81
72636;BME280;60679;48.888;15.544;2023-06-19T11:52:36;96069.19;;;58.74;10.19
72636;BME280;60679;48.888;15.544;2023-06-19T11:55:01;96062.59;;;58.92;9.90
72636;BME280;60679;48.888;15.544;2023-06-19T11:57:27;96068.59;;;59.00;9.72
72636;BME280;60679;48.888;15.544;2023-06-19T11:59:55;96060.47;;;58.50;10.03
72636;BME280;60679;48.888;15.544;2023-06-19T12:02:21;96055.56;;;59.01;9.66
72636;BME280;60679;48.888;15.544;2023-06-19T12:04:49;96056.19;;;59.49;9.46
72636;BME280;60679;48.888;15.544;2023-06-19T12:07:15;96063.44;;;60.07;9.47
72636;BME280;60679;48.888;15.544;2023-06-19T12:09:41;96055.84;;;60.43;9.16
72636;BME280;60679;48.888;15.544;2023-06-19T12:12:08;96051.09;;;60.92;8.77
72636;BME280;60679;48.888;15.544;2023-06-19T12:14:34;96050.69;;;60.23;9.13
72636;BME280;60679;48.888;15.544;2023-06-19T12:17:05;96043.72;;;60.26;9.00
72636;BME280;60679;48.888;15.544;2023-06-19T12:19:31;96044.94;;;60.30;8.49
72636;BME280;60679;48.888;15.544;2023-06-19T12:21:56;96048.47;;;60.55;8.71
72636;BME280;60679;48.888;15.544;2023-06-19T12:24:22;96048.72;;;61.04;8.26
72636;BME280;60679;48.888;15.544;2023-06-19T12:26:48;96052.03;;;61.34;8.42
72636;BME280;60679;48.888;15.544;2023-06-19T12:29:13;96054.81;;;61.27;8.25
72636;BME280;60679;48.888;15.544;2023-06-19T12:31:39;96052.91;;;61.29;8.19
72636;BME280;60679;48.888;15.544;2023-06-19T12:34:04;96048.03;;;61.45;8.21
72636;BME280;60679;48.888;15.544;2023-06-19T12:36:32;96053.16;;;61.52;7.53
72636;BME280;60679;48.888;15.544;2023-06-19T12:38:58;96055.91;;;61.71;7.66
72636;BME280;60679;48.888;15.544;2023-06-19T12:41:24;96052.09;;;62.25;7.52
72636;BME280;60679;48.888;15.544;2023-06-19T12:43:51;96052.00;;;61.68;7.61
72636;BME280;60679;48.888;15.544;2023-06-19T12:46:19;96047.53;;;60.86;8.36
72636;BME280;60679;48.888;15.544;2023-06-19T12:48:44;96046.38;;;61.36;7.47
72636;BME280;60679;48.888;15.544;2023-06-19T12:51:16;96045.00;;;61.71;7.37